Time;durP1;ratioP1;P1;durP2;ratioP2;P2;SDS_P1;SDS_P2;PMS_P1;PMS_P2;Temp;Humidity;BMP_temperature;BMP_pressure;BME280_temperature;BME280_humidity;BME280_pressure;Samples;Min_cycle;Max_cycle;Signal;HPM_P1;HPM_P2
2022/02/07 00:00:37;;;;;;;0.93;0.22;;;;;;;20.24;48.79;98413.13;5033239;28;20702;-62
2022/02/07 00:03:09;;;;;;;0.90;0.38;;;;;;;20.19;49.47;98415.75;5014635;28;20030;-62
2022/02/07 00:05:36;;;;;;;1.55;0.30;;;;;;;20.17;49.34;98415.19;5014200;28;20351;-61
2022/02/07 00:08:01;;;;;;;0.95;0.30;;;;;;;20.16;49.02;98423.59;5014518;28;20189;-61
2022/02/07 00:10:27;;;;;;;1.35;0.25;;;;;;;20.14;49.83;98427.38;5014287;28;20366;-61
2022/02/07 00:12:52;;;;;;;0.95;0.40;;;;;;;20.11;49.65;98433.31;5014299;28;20528;-61
2022/02/07 00:15:18;;;;;;;0.60;0.20;;;;;;;20.09;49.17;98440.91;5014235;28;20416;-62
2022/02/07 00:17:46;;;;;;;1.50;1.02;;;;;;;20.05;49.49;98452.53;5014085;28;20458;-62
2022/02/07 00:20:16;;;;;;;1.63;0.52;;;;;;;20.02;49.94;98451.13;5014134;28;20030;-61
2022/02/07 00:22:42;;;;;;;1.33;0.35;;;;;;;20.05;49.07;98445.19;5013851;28;20072;-61
2022/02/07 00:25:08;;;;;;;0.57;0.20;;;;;;;19.96;49.27;98452.06;5013920;28;20065;-62
2022/02/07 00:27:34;;;;;;;0.82;0.32;;;;;;;19.94;49.56;98453.38;5013861;28;20054;-61
2022/02/07 00:29:59;;;;;;;0.88;0.40;;;;;;;19.96;49.35;98465.69;5018295;28;20374;-61
2022/02/07 00:32:24;;;;;;;1.55;0.45;;;;;;;19.93;50.15;98468.09;5033624;28;20104;-61
2022/02/07 00:34:50;;;;;;;1.60;0.60;;;;;;;19.93;49.53;98463.47;5033485;28;20501;-61
2022/02/07 00:37:15;;;;;;;1.73;0.45;;;;;;;19.87;49.79;98467.16;5033477;28;20060;-61
2022/02/07 00:39:47;;;;;;;0.95;0.30;;;;;;;19.89;49.52;98472.34;5033236;28;20473;-62
2022/02/07 00:42:22;;;;;;;1.55;0.30;;;;;;;19.84;49.35;98481.25;5033423;28;20476;-61
2022/02/07 00:44:49;;;;;;;0.57;0.20;;;;;;;19.84;49.52;98486.72;5033432;28;20034;-62
2022/02/07 00:47:15;;;;;;;1.58;0.30;;;;;;;19.81;49.20;98487.16;5033313;28;20419;-61
2022/02/07 00:49:42;;;;;;;0.88;0.47;;;;;;;19.75;49.73;98488.94;5033178;28;20018;-62
2022/02/07 00:52:07;;;;;;;2.20;0.30;;;;;;;19.74;49.40;98481.84;5033480;28;20029;-61
2022/02/07 00:54:32;;;;;;;1.23;0.30;;;;;;;19.75;50.28;98488.13;5033050;28;20398;-61
2022/02/07 00:56:57;;;;;;;1.45;0.28;;;;;;;19.80;49.88;98485.50;5033259;28;20025;-62
2022/02/07 00:59:23;;;;;;;1.67;0.28;;;;;;;19.73;48.98;98484.81;5032784;28;20029;-62
2022/02/07 01:01:48;;;;;;;1.95;0.50;;;;;;;19.75;49.64;98488.13;5032979;28;20049;-61
2022/02/07 01:04:13;;;;;;;1.10;0.30;;;;;;;19.70;49.82;98488.00;5033178;28;20482;-61
2022/02/07 01:06:39;;;;;;;1.17;0.20;;;;;;;19.72;49.89;98485.88;5032927;28;20024;-62
2022/02/07 01:09:13;;;;;;;3.25;0.70;;;;;;;19.71;49.44;98492.41;5033007;28;20126;-61
2022/02/07 01:54:33;;;;;;;1.17;0.30;;;;;;;19.46;49.46;98498.84;4951764;29;20047;-61
2022/02/07 01:56:59;;;;;;;1.13;0.30;;;;;;;19.47;49.10;98503.22;4951980;28;20038;-61
2022/02/07 01:59:25;;;;;;;0.60;0.20;;;;;;;19.48;49.29;98506.78;4970982;28;20402;-61
2022/02/07 02:01:50;;;;;;;0.70;0.17;;;;;;;19.44;49.36;98511.88;4970986;28;20494;-61
2022/02/07 02:04:15;;;;;;;1.33;0.30;;;;;;;19.46;49.21;98507.00;4971143;28;20041;-61
2022/02/07 02:06:41;;;;;;;2.10;0.57;;;;;;;19.42;49.65;98511.28;5002310;28;20038;-61
2022/02/07 02:09:07;;;;;;;1.70;0.45;;;;;;;19.43;50.23;98510.22;5032144;28;20041;-62
2022/02/07 02:11:35;;;;;;;0.90;0.30;;;;;;;19.41;49.09;98519.69;5031977;28;20025;-62
2022/02/07 02:16:53;;;;;;;1.77;0.32;;;;;;;19.41;50.05;98539.59;5032284;28;20537;-61
2022/02/07 02:20:13;;;;;;;2.53;0.40;;;;;;;19.37;49.28;98541.13;5032007;28;20037;-61
2022/02/07 02:38:06;;;;;;;1.02;0.25;;;;;;;19.32;49.52;98553.78;5036434;28;20033;-61
2022/02/07 02:46:00;;;;;;;0.55;0.35;;;;;;;19.32;49.28;98560.06;5035851;28;20120;-61
2022/02/07 02:48:27;;;;;;;0.63;0.10;;;;;;;19.27;48.93;98567.25;5035619;28;20029;-62
2022/02/07 02:50:54;;;;;;;1.27;0.20;;;;;;;19.28;49.40;98568.91;5034987;28;20029;-61
2022/02/07 02:53:20;;;;;;;0.63;0.20;;;;;;;19.24;49.08;98563.09;5035228;28;20050;-62
2022/02/07 02:55:48;;;;;;;0.77;0.13;;;;;;;19.22;49.39;98559.78;5035602;28;20067;-61
2022/02/07 02:58:18;;;;;;;1.88;0.52;;;;;;;19.20;49.78;98575.53;5035542;28;20033;-62
2022/02/07 03:00:48;;;;;;;1.70;0.52;;;;;;;19.23;49.13;98569.63;5035142;28;20538;-61
2022/02/07 03:03:13;;;;;;;1.08;0.10;;;;;;;19.23;49.23;98573.16;5035364;28;20040;-61
2022/02/07 03:05:42;;;;;;;1.70;0.43;;;;;;;19.19;48.75;98582.03;5035133;28;20407;-61
2022/02/07 03:08:08;;;;;;;1.20;0.47;;;;;;;19.23;49.26;98588.69;5035370;28;20492;-61
2022/02/07 03:18:46;;;;;;;1.33;0.32;;;;;;;19.27;49.10;98603.50;4954505;29;20039;-62
2022/02/07 03:21:12;;;;;;;1.75;0.30;;;;;;;19.57;51.66;98605.41;4954026;29;20043;-61
2022/02/07 03:23:37;;;;;;;1.23;0.52;;;;;;;19.73;53.67;98615.66;4954346;29;20591;-61
2022/02/07 03:26:04;;;;;;;0.98;0.20;;;;;;;19.81;54.80;98615.28;4954577;29;20046;-61
2022/02/07 03:28:29;;;;;;;0.63;0.20;;;;;;;19.93;56.05;98620.78;4938138;29;20126;-61
2022/02/07 03:30:55;;;;;;;1.55;0.30;;;;;;;19.95;57.11;98614.03;4954490;29;20126;-62
2022/02/07 03:33:20;;;;;;;0.75;0.20;;;;;;;19.99;58.66;98619.84;4953579;28;20086;-62
2022/02/07 03:35:46;;;;;;;1.02;0.10;;;;;;;20.04;59.80;98623.53;4954079;29;20027;-62
2022/02/07 03:38:12;;;;;;;0.88;0.20;;;;;;;20.08;60.16;98611.06;4954336;29;20027;-61
2022/02/07 03:40:38;;;;;;;0.82;0.30;;;;;;;20.14;60.87;98612.84;4953979;29;20043;-62
2022/02/07 03:43:04;;;;;;;0.30;0.30;;;;;;;20.18;61.60;98620.59;4954108;29;20047;-61
2022/02/07 03:45:29;;;;;;;0.20;0.17;;;;;;;20.22;61.95;98625.31;4953873;29;20031;-62
2022/02/07 03:47:55;;;;;;;0.55;0.10;;;;;;;20.29;62.76;98630.66;4954156;29;20107;-61
2022/02/07 03:50:21;;;;;;;1.40;0.20;;;;;;;20.30;62.63;98635.03;4953776;29;20027;-62
2022/02/07 03:52:46;;;;;;;1.73;0.30;;;;;;;20.34;63.04;98617.16;4981452;28;20045;-62
2022/02/07 03:55:12;;;;;;;0.98;0.20;;;;;;;20.37;63.43;98620.22;5034250;28;20049;-61
2022/02/07 03:57:37;;;;;;;0.98;0.25;;;;;;;20.43;63.32;98607.56;5034214;28;20358;-62
2022/02/07 04:00:05;;;;;;;0.88;0.30;;;;;;;20.45;63.82;98673.63;5034370;28;20029;-62
2022/02/07 04:02:39;;;;;;;1.27;0.30;;;;;;;20.48;64.26;98651.31;5034127;28;20109;-62
2022/02/07 04:05:50;;;;;;;0.60;0.40;;;;;;;20.51;63.82;98653.59;5034125;28;20044;-61
2022/02/07 04:07:53;;;;;;;0.98;0.28;;;;;;;20.55;64.02;98659.41;5028465;28;20547;-62
2022/02/07 04:10:20;;;;;;;0.32;0.00;;;;;;;20.59;64.34;98675.06;5034238;28;20021;-62
2022/02/07 04:12:52;;;;;;;0.93;0.22;;;;;;;20.60;64.00;98682.19;5033977;28;20025;-62
2022/02/07 04:15:19;;;;;;;1.85;0.43;;;;;;;20.63;64.60;98695.34;5033991;28;20037;-62
2022/02/07 04:17:50;;;;;;;1.85;0.30;;;;;;;20.64;63.70;98697.00;5033876;28;20063;-62
2022/02/07 04:20:17;;;;;;;0.70;0.30;;;;;;;20.66;63.96;98689.44;5033772;28;20139;-62
2022/02/07 04:22:43;;;;;;;0.73;0.20;;;;;;;20.69;64.29;98658.94;5033553;28;20025;-62
2022/02/07 04:25:09;;;;;;;0.47;0.20;;;;;;;20.68;64.01;98657.28;5033797;28;20485;-62
2022/02/07 04:27:34;;;;;;;1.45;0.35;;;;;;;20.73;64.00;98664.72;5033675;28;20053;-62
2022/02/07 04:30:00;;;;;;;0.68;0.30;;;;;;;20.74;63.93;98671.84;5016004;28;20049;-61
2022/02/07 04:32:25;;;;;;;1.25;0.63;;;;;;;20.76;63.74;98675.16;5033695;28;20067;-62
2022/02/07 04:34:50;;;;;;;1.65;0.20;;;;;;;20.79;63.32;98676.59;5033654;28;20044;-61
2022/02/07 04:37:17;;;;;;;2.42;0.43;;;;;;;20.79;63.42;98677.41;5033548;28;20021;-62
2022/02/07 04:39:42;;;;;;;1.13;0.30;;;;;;;20.83;62.81;98680.53;5033382;28;20060;-61
2022/02/07 04:42:10;;;;;;;1.13;0.30;;;;;;;20.84;62.51;98683.00;5033462;28;20465;-62
2022/02/07 04:44:45;;;;;;;0.40;0.20;;;;;;;20.87;62.08;98698.09;5033221;28;20052;-62
2022/02/07 05:00:31;;;;;;;0.82;0.10;;;;;;;20.94;61.72;98705.06;5033453;28;20037;-62
2022/02/07 05:16:18;;;;;;;1.83;0.70;;;;;;;23.22;55.14;98758.78;5033281;28;20040;-62
2022/02/07 05:18:44;;;;;;;1.83;0.30;;;;;;;23.31;55.75;98746.28;5032235;28;20025;-63
2022/02/07 05:21:10;;;;;;;2.72;0.75;;;;;;;23.37;55.26;98750.78;5032723;28;20022;-62
2022/02/07 05:23:35;;;;;;;0.90;0.30;;;;;;;23.46;54.76;98748.41;5032596;28;20071;-62
2022/02/07 05:26:01;;;;;;;2.70;0.50;;;;;;;23.54;54.52;98759.78;5032894;28;20116;-62
2022/02/07 05:28:26;;;;;;;1.48;0.30;;;;;;;23.60;54.59;98766.16;5032653;28;20029;-62
2022/02/07 05:30:51;;;;;;;0.88;0.20;;;;;;;23.63;54.67;98761.00;5032649;28;20029;-62
2022/02/07 05:33:16;;;;;;;1.40;0.52;;;;;;;23.73;55.21;98770.44;5032600;28;20125;-62
2022/02/07 05:35:42;;;;;;;0.77;0.15;;;;;;;23.64;54.93;98770.88;5014643;28;20025;-62
2022/02/07 05:38:09;;;;;;;1.05;0.52;;;;;;;22.95;54.49;98764.97;5032687;28;20043;-61
2022/02/07 05:40:59;;;;;;;2.40;0.57;;;;;;;22.57;52.87;98767.63;5032266;28;20389;-62
2022/02/07 05:43:20;;;;;;;0.88;0.20;;;;;;;22.50;50.04;98770.50;5031899;28;20404;-62
2022/02/07 05:45:45;;;;;;;1.63;0.20;;;;;;;22.48;48.31;98765.28;5032303;28;20025;-62
2022/02/07 05:48:10;;;;;;;1.10;0.43;;;;;;;22.51;46.76;98786.72;5032543;28;20033;-62
2022/02/07 05:50:39;;;;;;;1.33;0.38;;;;;;;22.60;46.26;98789.03;5032014;28;20057;-62
2022/02/07 05:53:04;;;;;;;2.10;0.60;;;;;;;22.57;44.96;98789.53;5032174;28;20025;-63
2022/02/07 05:55:29;;;;;;;3.72;0.40;;;;;;;22.44;44.71;98796.97;5032268;28;20021;-62
2022/02/07 05:57:55;;;;;;;0.35;0.15;;;;;;;22.42;44.59;98803.78;5032021;28;20044;-62
2022/02/07 06:00:20;;;;;;;0.30;0.20;;;;;;;22.42;44.54;98814.72;5032278;28;20030;-62
2022/02/07 06:02:46;;;;;;;0.52;0.40;;;;;;;22.37;44.05;98801.78;5032125;28;20100;-63
2022/02/07 06:05:11;;;;;;;1.55;0.30;;;;;;;22.51;44.28;98805.88;5032112;28;20515;-62
2022/02/07 06:07:37;;;;;;;1.20;0.28;;;;;;;22.39;43.82;98816.06;5031023;28;20040;-62
2022/02/07 06:10:04;;;;;;;0.57;0.43;;;;;;;22.44;43.99;98810.66;5030208;28;20453;-61
2022/02/07 06:12:38;;;;;;;2.05;0.20;;;;;;;22.52;44.05;98804.81;5014262;28;20026;-62
2022/02/07 06:15:04;;;;;;;0.77;0.30;;;;;;;22.47;43.49;98807.44;5032213;28;20377;-62
2022/02/07 06:17:30;;;;;;;0.40;0.05;;;;;;;22.40;43.44;98801.28;5032071;28;20026;-62
2022/02/07 06:19:55;;;;;;;1.65;0.32;;;;;;;22.45;43.63;98809.59;5031832;28;20424;-62
2022/02/07 06:22:20;;;;;;;0.70;0.30;;;;;;;22.42;43.70;98814.72;5031969;28;20036;-62
2022/02/07 06:24:46;;;;;;;1.27;0.20;;;;;;;22.46;43.04;98807.69;5031985;28;20025;-62
2022/02/07 06:27:12;;;;;;;1.65;0.63;;;;;;;22.41;43.77;98815.81;5032022;28;20021;-62
2022/02/07 06:29:37;;;;;;;0.80;0.20;;;;;;;22.42;43.38;98826.50;5031886;28;20052;-62
2022/02/07 06:32:03;;;;;;;2.40;0.30;;;;;;;22.44;43.44;98823.53;5032211;28;20025;-62
2022/02/07 06:34:28;;;;;;;0.75;0.20;;;;;;;22.40;43.30;98817.72;5031772;28;20040;-62
2022/02/07 06:36:53;;;;;;;1.10;0.30;;;;;;;22.48;42.96;98836.47;5031906;28;20036;-62
2022/02/07 06:39:19;;;;;;;1.08;0.30;;;;;;;22.48;43.38;98841.94;5031844;28;20492;-62
2022/02/07 06:41:46;;;;;;;0.55;0.28;;;;;;;22.58;43.03;98845.97;5031799;28;20060;-61
2022/02/07 06:44:11;;;;;;;1.15;0.30;;;;;;;22.46;43.17;98856.97;5032003;28;20535;-62
2022/02/07 06:46:36;;;;;;;1.95;0.30;;;;;;;22.42;43.23;98864.84;5031792;28;20092;-61
2022/02/07 06:49:02;;;;;;;1.30;0.50;;;;;;;22.41;42.86;98862.34;5031397;28;20025;-62
2022/02/07 06:51:27;;;;;;;1.33;0.22;;;;;;;22.46;42.53;98865.19;5032044;28;20032;-63
2022/02/07 06:53:53;;;;;;;0.95;0.32;;;;;;;22.43;42.72;98866.50;5014033;28;20048;-62
2022/02/07 06:56:20;;;;;;;1.88;0.60;;;;;;;22.49;42.62;98870.97;5031916;28;20034;-62
2022/02/07 06:58:46;;;;;;;1.58;0.45;;;;;;;22.56;42.65;98870.03;5031680;28;20096;-62
2022/02/07 07:01:11;;;;;;;1.83;0.38;;;;;;;22.53;42.52;98882.31;5031874;28;20037;-62
2022/02/07 07:03:38;;;;;;;1.33;0.30;;;;;;;22.51;42.75;98885.28;5031936;28;20469;-62
2022/02/07 07:06:03;;;;;;;2.92;0.68;;;;;;;22.45;42.99;98897.19;5031904;28;20033;-62
2022/02/07 07:08:35;;;;;;;2.00;0.50;;;;;;;22.48;42.52;98901.34;5031931;28;20025;-62
2022/02/07 07:11:00;;;;;;;0.20;0.10;;;;;;;22.47;42.89;98900.53;5035220;28;20022;-61
2022/02/07 07:13:37;;;;;;;0.90;0.20;;;;;;;22.51;43.14;98907.19;5035241;28;20598;-62
2022/02/07 07:16:14;;;;;;;1.92;0.20;;;;;;;22.45;42.82;98915.53;5035239;28;20064;-62
2022/02/07 07:18:40;;;;;;;0.63;0.40;;;;;;;22.50;42.77;98924.66;5034806;28;20029;-61
2022/02/07 07:21:05;;;;;;;0.88;0.28;;;;;;;22.41;42.96;98931.63;5035314;28;20075;-62
2022/02/07 07:23:32;;;;;;;3.75;0.47;;;;;;;22.49;42.42;98942.16;5035003;28;20024;-61
2022/02/07 07:25:57;;;;;;;0.88;0.10;;;;;;;22.53;42.43;98942.53;5035069;28;20542;-62
2022/02/07 07:28:24;;;;;;;0.85;0.15;;;;;;;22.55;42.10;98947.75;5035012;28;20030;-61
2022/02/07 07:30:54;;;;;;;0.93;0.30;;;;;;;22.51;42.86;98955.66;5034944;28;20036;-62
2022/02/07 07:33:23;;;;;;;1.95;0.40;;;;;;;22.45;42.52;98968.38;5034757;28;20385;-61
2022/02/07 07:35:49;;;;;;;0.88;0.30;;;;;;;22.59;42.51;98971.66;5035013;28;20041;-61
2022/02/07 07:38:14;;;;;;;1.55;0.43;;;;;;;22.59;43.42;98968.09;5034944;28;20025;-61
2022/02/07 07:40:40;;;;;;;0.68;0.40;;;;;;;22.63;43.26;98974.75;5034585;28;20104;-61
2022/02/07 07:43:07;;;;;;;2.42;0.30;;;;;;;22.66;43.18;98974.25;5034624;28;20408;-61
2022/02/07 07:45:36;;;;;;;0.82;0.30;;;;;;;22.68;42.55;98983.09;5034540;28;20025;-61
2022/02/07 07:48:02;;;;;;;0.75;0.30;;;;;;;22.62;43.44;98989.50;5034315;28;20060;-62
2022/02/07 07:50:34;;;;;;;1.05;0.40;;;;;;;22.70;43.20;98991.88;5034178;28;20036;-61
2022/02/07 07:53:10;;;;;;;0.82;0.15;;;;;;;22.68;43.91;98994.88;5013607;28;20022;-62
2022/02/07 08:03:42;;;;;;;0.70;0.20;;;;;;;22.66;43.84;99002.47;5034161;28;20116;-61
2022/02/07 08:06:14;;;;;;;0.60;0.20;;;;;;;22.77;43.71;99014.47;5034749;28;20031;-62
2022/02/07 08:08:48;;;;;;;0.98;0.20;;;;;;;22.74;43.11;99009.47;5034041;28;20029;-61
2022/02/07 08:11:15;;;;;;;1.33;0.30;;;;;;;22.76;43.09;99013.63;5016388;28;20556;-62
2022/02/07 08:13:45;;;;;;;2.25;0.20;;;;;;;22.76;43.77;99012.81;5033930;28;20091;-61
2022/02/07 08:16:11;;;;;;;1.20;0.45;;;;;;;22.72;43.99;99001.50;5034178;28;20025;-61
2022/02/07 08:18:36;;;;;;;0.77;0.32;;;;;;;22.74;43.85;99012.22;5033596;28;20025;-61
2022/02/07 08:21:03;;;;;;;0.80;0.20;;;;;;;22.79;43.53;99012.31;5033642;28;20025;-61
2022/02/07 08:23:28;;;;;;;0.22;0.15;;;;;;;22.75;43.76;99024.84;5033843;28;20472;-61
2022/02/07 08:25:54;;;;;;;0.50;0.30;;;;;;;22.83;43.18;99032.69;5015929;28;20104;-62
2022/02/07 08:28:19;;;;;;;1.10;0.30;;;;;;;22.76;43.25;99029.25;5033934;28;20093;-61
2022/02/07 08:30:45;;;;;;;1.00;0.13;;;;;;;22.79;43.41;99039.72;5033674;28;20029;-62
2022/02/07 08:33:10;;;;;;;0.38;0.20;;;;;;;22.74;43.93;99047.84;5015766;28;20022;-61
2022/02/07 08:35:36;;;;;;;1.25;0.20;;;;;;;22.80;43.30;99046.84;5033444;28;20029;-62
2022/02/07 08:38:01;;;;;;;1.42;0.30;;;;;;;22.83;43.43;99057.34;5033784;28;20100;-61
2022/02/07 08:40:27;;;;;;;1.63;0.40;;;;;;;22.84;43.42;99066.41;5033500;28;20025;-62
2022/02/07 08:42:54;;;;;;;1.15;0.30;;;;;;;22.78;43.85;99060.78;5033336;28;20056;-62
2022/02/07 08:45:20;;;;;;;0.65;0.17;;;;;;;22.73;43.56;99057.97;5033737;28;20027;-62
2022/02/07 08:47:46;;;;;;;2.20;0.28;;;;;;;22.80;43.21;99066.03;5031796;28;20447;-61
2022/02/07 08:50:12;;;;;;;1.35;0.30;;;;;;;22.79;43.18;99067.09;5015096;28;20116;-62
2022/02/07 08:52:44;;;;;;;1.08;0.30;;;;;;;22.83;43.78;99084.75;5033216;28;20021;-61
2022/02/07 08:55:20;;;;;;;1.73;0.25;;;;;;;22.89;43.19;99088.44;5033127;28;20056;-62
2022/02/07 08:57:47;;;;;;;0.70;0.17;;;;;;;22.81;43.57;99089.59;5033107;28;20100;-62
2022/02/07 09:00:22;;;;;;;1.38;0.30;;;;;;;22.85;42.84;99093.56;5033267;28;20029;-61
2022/02/07 09:07:51;;;;;;;1.27;0.43;;;;;;;22.80;43.14;99087.94;5033251;28;20029;-62
2022/02/07 09:10:17;;;;;;;0.73;0.20;;;;;;;22.84;43.84;99102.84;5033179;28;20068;-61
2022/02/07 09:12:45;;;;;;;1.23;0.30;;;;;;;22.85;43.05;99107.28;5032750;28;20029;-62
2022/02/07 09:15:32;;;;;;;1.38;0.50;;;;;;;22.85;43.74;99120.97;5033151;28;20049;-61
2022/02/07 09:18:05;;;;;;;0.40;0.17;;;;;;;22.83;43.82;99117.63;5032722;28;20029;-61
2022/02/07 09:20:32;;;;;;;2.17;0.22;;;;;;;22.83;43.21;99120.34;5032626;28;20028;-62
2022/02/07 09:22:57;;;;;;;1.00;0.40;;;;;;;22.87;43.30;99129.78;5015440;28;20457;-61
2022/02/07 09:25:22;;;;;;;0.90;0.22;;;;;;;22.80;43.45;99135.34;5032602;28;20036;-62
2022/02/07 09:27:48;;;;;;;0.47;0.20;;;;;;;22.82;43.47;99137.88;5032669;28;20457;-61
2022/02/07 09:30:13;;;;;;;1.33;0.40;;;;;;;22.89;43.22;99143.22;5032213;28;20029;-62
2022/02/07 09:32:39;;;;;;;2.45;0.20;;;;;;;22.90;43.32;99153.94;5032004;28;20032;-61
2022/02/07 09:35:05;;;;;;;0.57;0.20;;;;;;;22.87;43.59;99170.88;5032549;28;20053;-62
2022/02/07 09:37:30;;;;;;;1.27;0.20;;;;;;;22.85;43.73;99170.28;5032399;28;20531;-61
2022/02/07 09:39:55;;;;;;;0.88;0.38;;;;;;;22.87;42.92;99184.56;5032530;28;20029;-62
2022/02/07 09:42:21;;;;;;;2.88;0.45;;;;;;;22.89;43.61;99187.06;5032254;28;20049;-61
2022/02/07 09:44:52;;;;;;;0.70;0.20;;;;;;;22.88;43.66;99196.38;5032393;28;20112;-62
2022/02/07 09:47:18;;;;;;;1.45;0.40;;;;;;;22.85;42.98;99192.22;5032396;28;20032;-62
2022/02/07 09:49:47;;;;;;;0.88;0.30;;;;;;;22.88;43.12;99199.09;5032530;28;20397;-62
2022/02/07 09:52:13;;;;;;;2.22;0.40;;;;;;;22.89;43.21;99198.03;5032741;28;20373;-61
2022/02/07 09:54:40;;;;;;;1.65;0.40;;;;;;;22.87;43.23;99211.16;5032111;28;20128;-62
2022/02/07 09:57:07;;;;;;;1.38;0.20;;;;;;;22.87;43.47;99211.16;5032249;28;20028;-61
2022/02/07 09:59:33;;;;;;;0.70;0.25;;;;;;;22.89;43.15;99214.47;5032081;28;20048;-62
2022/02/07 10:02:03;;;;;;;0.55;0.20;;;;;;;22.89;43.44;99220.78;5032365;28;20029;-62
2022/02/07 10:04:38;;;;;;;2.35;1.00;;;;;;;22.88;43.24;99227.34;5032110;28;20025;-62
2022/02/07 10:07:36;;;;;;;0.98;0.35;;;;;;;22.93;43.22;99232.91;5014423;28;20491;-61
2022/02/07 10:10:23;;;;;;;1.45;0.20;;;;;;;22.89;43.03;99242.69;5031511;28;20044;-62
2022/02/07 10:15:30;;;;;;;1.10;0.30;;;;;;;22.88;43.11;99240.22;5032391;28;20038;-61
2022/02/07 10:43:16;;;;;;;0.50;0.28;;;;;;;22.90;43.28;99287.38;5026885;28;20475;-61
2022/02/07 10:46:03;;;;;;;1.98;0.32;;;;;;;22.87;43.66;99294.16;5015036;28;20030;-61
2022/02/07 10:48:37;;;;;;;1.70;0.20;;;;;;;22.88;43.56;99295.84;5026094;28;20053;-60
2022/02/07 10:51:17;;;;;;;1.63;0.22;;;;;;;22.90;43.52;99310.13;5028369;28;20029;-61
2022/02/07 10:53:47;;;;;;;1.88;0.50;;;;;;;22.95;43.98;99306.66;5015512;28;20072;-61
2022/02/07 10:56:15;;;;;;;2.15;0.47;;;;;;;22.97;43.25;99316.31;5019231;28;20489;-61
2022/02/07 10:58:41;;;;;;;1.05;0.30;;;;;;;22.96;43.73;99320.13;5015093;28;20583;-61
2022/02/07 11:01:18;;;;;;;1.33;0.57;;;;;;;22.95;43.78;99323.09;5014728;28;20017;-61
2022/02/07 11:03:53;;;;;;;1.50;0.63;;;;;;;22.91;44.02;99332.88;5014799;28;20148;-61
2022/02/07 11:06:29;;;;;;;3.72;0.50;;;;;;;22.96;43.52;99342.03;5015533;28;20032;-61
2022/02/07 11:17:20;;;;;;;1.63;0.40;;;;;;;22.96;43.67;99354.91;5035313;28;20476;-61
2022/02/07 11:25:15;;;;;;;1.70;0.35;;;;;;;22.98;43.83;99367.31;5035268;28;20021;-61
2022/02/07 11:27:50;;;;;;;1.02;0.40;;;;;;;22.96;43.59;99372.19;5034869;28;20496;-61
2022/02/07 11:30:18;;;;;;;1.75;0.20;;;;;;;22.95;44.29;99376.00;5017616;28;20468;-61
2022/02/07 11:32:44;;;;;;;1.00;0.45;;;;;;;23.00;43.41;99387.09;5034771;28;20072;-61
2022/02/07 11:35:22;;;;;;;3.00;0.57;;;;;;;22.94;43.31;99389.94;5034779;28;20026;-60
2022/02/07 11:38:01;;;;;;;1.98;0.30;;;;;;;22.97;43.99;99394.94;5029362;28;20034;-61
2022/02/07 11:40:38;;;;;;;2.20;0.30;;;;;;;22.85;44.33;99411.38;5030836;28;20108;-61
2022/02/07 11:43:06;;;;;;;1.77;0.47;;;;;;;22.93;43.61;99419.25;5036499;28;20033;-61
2022/02/07 11:45:50;;;;;;;0.68;0.30;;;;;;;22.96;43.52;99418.78;5033256;28;20033;-61
2022/02/07 11:48:19;;;;;;;1.27;0.43;;;;;;;23.03;43.47;99429.66;5032995;28;20021;-60
2022/02/07 11:50:46;;;;;;;1.17;0.30;;;;;;;22.99;43.69;99428.44;5029260;28;20021;-60
2022/02/07 11:53:13;;;;;;;1.40;0.50;;;;;;;23.01;43.51;99440.84;5023038;28;20025;-61
2022/02/07 11:55:46;;;;;;;1.10;0.40;;;;;;;23.00;44.07;99447.38;5031847;28;20091;-60
2022/02/07 11:58:24;;;;;;;0.90;0.53;;;;;;;23.00;43.27;99447.38;5032794;28;20065;-61
2022/02/07 12:00:56;;;;;;;1.50;0.30;;;;;;;22.96;43.46;99453.56;5040428;28;20025;-61
2022/02/07 12:03:23;;;;;;;1.58;0.38;;;;;;;22.95;43.58;99463.69;5038705;28;20025;-61
2022/02/07 12:05:57;;;;;;;1.08;0.30;;;;;;;22.95;43.37;99471.91;5027844;28;20396;-61
2022/02/07 12:08:25;;;;;;;0.50;0.28;;;;;;;22.91;43.77;99476.19;5023043;28;20269;-61
2022/02/07 12:11:02;;;;;;;0.55;0.17;;;;;;;22.98;43.70;99476.09;5004469;28;20438;-61
2022/02/07 12:13:31;;;;;;;1.40;0.45;;;;;;;22.99;43.51;99489.56;5024457;28;20022;-61
2022/02/07 12:16:02;;;;;;;0.70;0.20;;;;;;;22.97;43.94;99496.34;5020751;28;20413;-61
2022/02/07 12:18:28;;;;;;;2.28;0.50;;;;;;;23.00;43.30;99507.66;5031360;28;20448;-62
2022/02/07 12:21:11;;;;;;;0.68;0.20;;;;;;;23.00;44.08;99509.56;5031167;28;20031;-61
2022/02/07 12:23:37;;;;;;;1.07;0.30;;;;;;;22.96;43.45;99517.44;5024510;28;20018;-61
2022/02/07 12:26:09;;;;;;;0.57;0.20;;;;;;;22.95;43.57;99514.94;5021957;28;20738;-62
2022/02/07 12:31:20;;;;;;;1.63;0.45;;;;;;;23.06;44.15;99549.78;5021614;28;20022;-60
2022/02/07 12:34:15;;;;;;;1.65;0.20;;;;;;;23.11;45.22;99564.44;5014834;28;20098;-60
2022/02/07 12:36:40;;;;;;;;;;;;;;;23.05;45.37;99565.38;5019719;28;20061;-60
2022/02/07 12:39:09;;;;;;;0.73;0.32;;;;;;;23.05;44.87;99570.88;5022545;28;19967;-61
2022/02/07 12:41:35;;;;;;;1.20;0.30;;;;;;;23.06;44.77;99572.53;5035806;28;20072;-61
2022/02/07 12:44:03;;;;;;;0.85;0.17;;;;;;;23.09;45.19;99576.72;5024374;28;20379;-61
2022/02/07 12:46:31;;;;;;;0.57;0.10;;;;;;;23.09;44.55;99582.19;5016201;28;20493;-60
2022/02/07 12:49:01;;;;;;;0.90;0.20;;;;;;;23.04;45.22;99585.63;5003148;28;20406;-60
2022/02/07 12:51:33;;;;;;;2.20;0.20;;;;;;;23.07;44.84;99596.13;5031128;28;20013;-60
2022/02/07 12:53:59;;;;;;;0.98;0.50;;;;;;;23.02;45.46;99598.75;5015369;28;20141;-60
2022/02/07 12:56:28;;;;;;;0.93;0.40;;;;;;;23.06;45.57;99610.91;4995055;28;20014;-60
2022/02/07 12:58:54;;;;;;;0.82;0.30;;;;;;;23.02;45.59;99615.19;5015118;28;20109;-60
2022/02/07 13:01:27;;;;;;;0.90;0.20;;;;;;;23.05;45.31;99644.88;5012487;28;20028;-61
2022/02/07 13:03:56;;;;;;;0.85;0.10;;;;;;;23.07;45.83;99659.19;5012636;28;20036;-60
2022/02/07 13:06:25;;;;;;;0.95;0.30;;;;;;;23.09;44.89;99670.75;5010683;28;20479;-60
2022/02/07 13:08:50;;;;;;;2.15;0.40;;;;;;;23.08;45.65;99677.28;5020567;28;20034;-60
2022/02/07 13:11:30;;;;;;;1.48;0.30;;;;;;;23.13;45.25;99693.03;5030809;28;20021;-60
2022/02/07 13:13:55;;;;;;;0.85;0.35;;;;;;;23.08;46.17;99696.47;5012753;28;20036;-60
2022/02/07 13:16:23;;;;;;;1.52;0.30;;;;;;;23.13;45.83;99703.16;5026840;28;20033;-60
2022/02/07 13:18:49;;;;;;;0.90;0.35;;;;;;;23.09;46.34;99714.59;5025670;28;20061;-60
2022/02/07 13:21:17;;;;;;;1.02;0.22;;;;;;;23.09;46.19;99724.72;5013364;28;20084;-60
2022/02/07 13:23:47;;;;;;;0.88;0.20;;;;;;;23.07;45.58;99738.66;4995532;28;20491;-60
2022/02/07 13:26:16;;;;;;;1.13;0.10;;;;;;;23.09;46.10;99744.75;5013219;28;20064;-60
2022/02/07 13:28:43;;;;;;;0.77;0.20;;;;;;;23.14;46.16;99748.69;5029948;28;20113;-60
2022/02/07 13:31:09;;;;;;;1.10;0.35;;;;;;;23.11;46.45;99756.31;5030560;28;20021;-60
2022/02/07 13:33:46;;;;;;;1.45;0.10;;;;;;;23.13;46.13;99764.31;5030347;28;20025;-60
2022/02/07 13:36:11;;;;;;;1.92;0.38;;;;;;;23.11;46.41;99772.78;5018287;28;20014;-60
2022/02/07 13:38:37;;;;;;;0.65;0.22;;;;;;;23.11;46.99;99794.69;5011787;28;20033;-60
2022/02/07 13:41:03;;;;;;;2.25;0.40;;;;;;;23.13;46.25;99805.44;5015955;28;20025;-60
2022/02/07 13:43:33;;;;;;;1.00;0.40;;;;;;;23.14;46.22;99812.59;5013131;28;20060;-60
2022/02/07 13:46:04;;;;;;;0.63;0.40;;;;;;;23.11;46.53;99827.59;5027665;28;20035;-60
2022/02/07 13:48:32;;;;;;;0.45;0.13;;;;;;;23.14;46.90;99823.56;5025810;28;20029;-60
2022/02/07 13:50:59;;;;;;;1.65;0.45;;;;;;;23.11;46.13;99822.13;5018951;28;20025;-60
2022/02/07 13:53:27;;;;;;;0.82;0.20;;;;;;;23.11;46.80;99821.28;5018621;28;20437;-60
2022/02/07 13:55:56;;;;;;;1.10;0.20;;;;;;;23.11;45.91;99832.25;5024441;28;20133;-60
2022/02/07 13:58:31;;;;;;;3.67;0.60;;;;;;;23.13;45.83;99845.72;5027916;28;20063;-60
2022/02/07 14:00:59;;;;;;;1.33;0.20;;;;;;;23.13;45.85;99863.00;5020789;28;20468;-60
2022/02/07 14:03:38;;;;;;;0.80;0.30;;;;;;;23.13;45.13;99870.41;5024767;28;20068;-60
2022/02/07 14:06:08;;;;;;;1.45;0.40;;;;;;;23.08;45.07;99885.63;5028946;28;20026;-59
2022/02/07 14:08:51;;;;;;;1.35;0.20;;;;;;;23.07;44.96;99886.69;5023208;28;20032;-60
2022/02/07 14:11:22;;;;;;;0.77;0.20;;;;;;;23.12;44.21;99888.75;5005689;28;20025;-60
2022/02/07 14:13:50;;;;;;;1.13;0.25;;;;;;;23.11;44.68;99909.84;5019621;28;20549;-60
2022/02/07 14:16:18;;;;;;;1.02;0.20;;;;;;;23.09;43.80;99916.63;5012312;28;20025;-60
2022/02/07 14:18:46;;;;;;;0.73;0.20;;;;;;;23.14;43.76;99929.63;5040489;28;20033;-60